Time;durP1;ratioP1;P1;durP2;ratioP2;P2;SDS_P1;SDS_P2;PMS_P1;PMS_P2;Temp;Humidity;BMP_temperature;BMP_pressure;BME280_temperature;BME280_humidity;BME280_pressure;Samples;Min_cycle;Max_cycle;Signal;HPM_P1;HPM_P2
2021/12/03 00:01:30;;;;;;;;;19.75;17.50;;;;;;;;4977652;28;45431;-72
2021/12/03 00:03:56;;;;;;;;;19.25;18.00;;;;;;;;4977537;28;45359;-72
2021/12/03 00:06:21;;;;;;;;;20.50;20.00;;;;;;;;4977603;28;45666;-72
2021/12/03 00:08:47;;;;;;;;;19.00;19.00;;;;;;;;4959837;28;45499;-72
2021/12/03 00:11:13;;;;;;;;;21.00;21.00;;;;;;;;4977384;28;45758;-71
2021/12/03 00:13:39;;;;;;;;;16.00;16.00;;;;;;;;4959765;28;45462;-72
2021/12/03 00:16:05;;;;;;;;;18.75;18.75;;;;;;;;4977209;28;45529;-72
2021/12/03 00:18:31;;;;;;;;;19.75;19.75;;;;;;;;4977864;28;45490;-73
2021/12/03 00:20:57;;;;;;;;;27.00;20.25;;;;;;;;4977236;28;45437;-74
2021/12/03 00:23:25;;;;;;;;;19.50;18.00;;;;;;;;4977202;28;45346;-75
2021/12/03 00:25:51;;;;;;;;;26.50;21.25;;;;;;;;4977366;28;45434;-79
2021/12/03 00:28:16;;;;;;;;;16.25;16.25;;;;;;;;4977528;28;45335;-78
2021/12/03 00:30:41;;;;;;;;;21.75;17.75;;;;;;;;4976852;28;46387;-77
2021/12/03 00:33:07;;;;;;;;;21.00;19.25;;;;;;;;4976569;28;45333;-79
2021/12/03 00:35:33;;;;;;;;;21.75;20.75;;;;;;;;4963136;28;45466;-76
2021/12/03 00:37:58;;;;;;;;;19.25;19.00;;;;;;;;4997300;28;45512;-77
2021/12/03 00:40:25;;;;;;;;;19.75;19.75;;;;;;;;4997281;28;46197;-78
2021/12/03 00:42:51;;;;;;;;;23.50;21.50;;;;;;;;4997441;28;45450;-77
2021/12/03 00:45:16;;;;;;;;;26.50;21.00;;;;;;;;4997439;28;45368;-77
2021/12/03 00:47:42;;;;;;;;;20.75;19.00;;;;;;;;4997483;28;45319;-73
2021/12/03 00:50:09;;;;;;;;;23.25;23.25;;;;;;;;4991107;28;46412;-74
2021/12/03 00:52:35;;;;;;;;;18.25;18.25;;;;;;;;4984959;28;45215;-75
2021/12/03 00:55:00;;;;;;;;;23.50;23.50;;;;;;;;4987093;28;45703;-74
2021/12/03 00:57:27;;;;;;;;;25.50;18.75;;;;;;;;4985442;28;45565;-75
2021/12/03 00:59:52;;;;;;;;;17.50;17.50;;;;;;;;4985555;28;45441;-74
2021/12/03 01:02:18;;;;;;;;;15.75;15.75;;;;;;;;4981679;28;45403;-75
2021/12/03 01:04:43;;;;;;;;;21.00;19.50;;;;;;;;4970011;28;45474;-75
2021/12/03 01:07:08;;;;;;;;;20.75;18.50;;;;;;;;4977717;28;45339;-76
2021/12/03 01:09:34;;;;;;;;;20.50;18.00;;;;;;;;4977180;28;45458;-77
2021/12/03 01:12:01;;;;;;;;;20.00;15.50;;;;;;;;4977350;28;45539;-76
2021/12/03 01:14:26;;;;;;;;;19.25;18.00;;;;;;;;4960212;28;45437;-75
2021/12/03 01:16:52;;;;;;;;;16.75;14.25;;;;;;;;4977873;28;45319;-74
2021/12/03 01:19:17;;;;;;;;;15.25;15.25;;;;;;;;4977318;28;45691;-75
2021/12/03 01:21:43;;;;;;;;;15.50;14.75;;;;;;;;4977167;28;45436;-75
2021/12/03 01:24:08;;;;;;;;;20.25;16.50;;;;;;;;4977162;28;45293;-77
2021/12/03 01:26:35;;;;;;;;;19.00;15.00;;;;;;;;4977623;28;45377;-76
2021/12/03 01:29:00;;;;;;;;;16.50;14.75;;;;;;;;4977174;28;46406;-76
2021/12/03 01:31:25;;;;;;;;;16.75;14.25;;;;;;;;4977245;28;45369;-76
2021/12/03 01:33:51;;;;;;;;;17.25;17.25;;;;;;;;4977648;28;45359;-75
2021/12/03 01:36:16;;;;;;;;;19.50;18.00;;;;;;;;4977738;28;45390;-76
2021/12/03 01:38:42;;;;;;;;;20.00;17.25;;;;;;;;4977184;28;45576;-75
2021/12/03 01:41:07;;;;;;;;;18.75;17.25;;;;;;;;4976861;28;45364;-75
2021/12/03 01:43:32;;;;;;;;;22.00;18.50;;;;;;;;4977193;28;45323;-75
2021/12/03 01:45:59;;;;;;;;;22.25;19.00;;;;;;;;4977519;28;45353;-77
2021/12/03 01:48:25;;;;;;;;;22.75;20.50;;;;;;;;4977126;28;45383;-75
2021/12/03 01:50:50;;;;;;;;;20.00;19.25;;;;;;;;4977026;28;45431;-78
2021/12/03 01:53:18;;;;;;;;;16.25;16.25;;;;;;;;4976171;28;45374;-78
2021/12/03 01:55:44;;;;;;;;;18.50;17.00;;;;;;;;4977260;28;45311;-74
2021/12/03 01:58:10;;;;;;;;;22.75;20.75;;;;;;;;4975547;28;45485;-77
2021/12/03 02:00:39;;;;;;;;;23.50;17.75;;;;;;;;4977112;28;45297;-77
2021/12/03 02:03:05;;;;;;;;;21.50;18.75;;;;;;;;4977000;28;45490;-77
2021/12/03 02:05:31;;;;;;;;;17.00;17.00;;;;;;;;4977143;28;45383;-78
2021/12/03 02:07:56;;;;;;;;;18.00;18.00;;;;;;;;4976732;28;45397;-76
2021/12/03 02:10:21;;;;;;;;;24.75;18.50;;;;;;;;4976574;28;45382;-77
2021/12/03 02:12:47;;;;;;;;;16.75;16.75;;;;;;;;4977536;28;45295;-77
2021/12/03 02:15:13;;;;;;;;;16.75;13.25;;;;;;;;4976679;28;45422;-77
2021/12/03 02:17:38;;;;;;;;;15.75;10.00;;;;;;;;4976532;28;47503;-78
2021/12/03 02:20:06;;;;;;;;;16.50;13.00;;;;;;;;4976983;28;45261;-77
2021/12/03 02:22:31;;;;;;;;;14.75;12.00;;;;;;;;4976733;28;45415;-77
2021/12/03 02:24:56;;;;;;;;;11.75;11.75;;;;;;;;4959609;28;45399;-78
2021/12/03 02:27:22;;;;;;;;;11.25;11.25;;;;;;;;4976287;28;46506;-78
2021/12/03 02:29:47;;;;;;;;;12.50;12.50;;;;;;;;4958991;28;45325;-78
2021/12/03 02:32:12;;;;;;;;;12.25;12.25;;;;;;;;4976821;28;45405;-78
2021/12/03 02:34:38;;;;;;;;;11.50;11.50;;;;;;;;4976846;28;45438;-79
2021/12/03 02:37:04;;;;;;;;;8.50;7.00;;;;;;;;4976584;28;45798;-79
2021/12/03 02:39:30;;;;;;;;;18.25;13.25;;;;;;;;4976730;28;45426;-79
2021/12/03 02:41:55;;;;;;;;;11.00;11.00;;;;;;;;4976833;28;45331;-78
2021/12/03 02:44:20;;;;;;;;;17.25;12.75;;;;;;;;4976871;28;45302;-77
2021/12/03 02:46:45;;;;;;;;;14.25;11.00;;;;;;;;4976745;28;45402;-79
2021/12/03 02:49:14;;;;;;;;;11.50;11.25;;;;;;;;4976716;28;45403;-78
2021/12/03 02:51:39;;;;;;;;;9.50;9.50;;;;;;;;4976946;28;45260;-78
2021/12/03 02:54:05;;;;;;;;;11.00;10.00;;;;;;;;4977205;28;45498;-78
2021/12/03 02:56:30;;;;;;;;;11.75;11.75;;;;;;;;4980535;28;45562;-78
2021/12/03 02:58:55;;;;;;;;;11.75;10.50;;;;;;;;4980883;28;45474;-79
2021/12/03 03:01:21;;;;;;;;;12.25;10.50;;;;;;;;4980279;28;45730;-77
2021/12/03 03:03:46;;;;;;;;;12.00;12.00;;;;;;;;4980325;28;45347;-77
2021/12/03 03:06:11;;;;;;;;;11.25;11.25;;;;;;;;4979886;28;47000;-77
2021/12/03 03:08:40;;;;;;;;;10.75;10.00;;;;;;;;4979863;28;45321;-77
2021/12/03 03:11:06;;;;;;;;;13.00;12.00;;;;;;;;4980170;28;45492;-77
2021/12/03 03:13:32;;;;;;;;;12.00;11.00;;;;;;;;4979917;28;45480;-77
2021/12/03 03:15:57;;;;;;;;;10.00;9.50;;;;;;;;4979516;28;45336;-77
2021/12/03 03:18:24;;;;;;;;;14.50;12.00;;;;;;;;4979457;28;45350;-77
2021/12/03 03:20:50;;;;;;;;;14.00;11.75;;;;;;;;4979627;28;45319;-77
2021/12/03 03:23:17;;;;;;;;;12.25;11.75;;;;;;;;4979835;28;45741;-78
2021/12/03 03:25:42;;;;;;;;;14.75;10.75;;;;;;;;4979804;28;46316;-79
2021/12/03 03:28:08;;;;;;;;;11.50;11.50;;;;;;;;4979565;28;45385;-78
2021/12/03 03:30:34;;;;;;;;;14.75;11.25;;;;;;;;4979840;28;45492;-80
2021/12/03 03:32:59;;;;;;;;;16.25;11.25;;;;;;;;4979867;28;45472;-78
2021/12/03 03:35:25;;;;;;;;;10.75;10.75;;;;;;;;4979629;28;45338;-78
2021/12/03 03:37:50;;;;;;;;;11.50;10.25;;;;;;;;4979470;28;45419;-79
2021/12/03 03:40:15;;;;;;;;;14.00;11.00;;;;;;;;4979683;28;45397;-78
2021/12/03 03:42:41;;;;;;;;;13.00;12.00;;;;;;;;4979705;28;45363;-80
2021/12/03 03:45:09;;;;;;;;;12.50;11.75;;;;;;;;4983177;28;45585;-79
2021/12/03 03:47:34;;;;;;;;;10.25;8.50;;;;;;;;4979073;28;45331;-77
2021/12/03 03:49:59;;;;;;;;;13.50;10.75;;;;;;;;4979512;28;45321;-78
2021/12/03 03:52:26;;;;;;;;;13.75;10.25;;;;;;;;4979109;28;45319;-78
2021/12/03 03:54:51;;;;;;;;;11.75;11.75;;;;;;;;4979150;28;46312;-78
2021/12/03 03:57:17;;;;;;;;;9.75;9.50;;;;;;;;4959706;28;45396;-77
2021/12/03 03:59:42;;;;;;;;;7.50;7.50;;;;;;;;4978067;28;45376;-77
2021/12/03 04:02:07;;;;;;;;;10.00;8.25;;;;;;;;4979051;28;45326;-78
2021/12/03 04:04:32;;;;;;;;;10.50;10.00;;;;;;;;4978704;28;47152;-79
2021/12/03 04:06:58;;;;;;;;;10.75;8.25;;;;;;;;4977395;28;45487;-79
2021/12/03 04:09:23;;;;;;;;;11.00;11.00;;;;;;;;4979088;28;45383;-79
2021/12/03 04:11:48;;;;;;;;;8.00;8.00;;;;;;;;4979185;28;45308;-79
2021/12/03 04:14:13;;;;;;;;;12.75;11.25;;;;;;;;4977215;28;47492;-78
2021/12/03 04:16:39;;;;;;;;;8.50;8.25;;;;;;;;4978316;28;45312;-78
2021/12/03 04:19:04;;;;;;;;;12.25;10.50;;;;;;;;4979077;28;45416;-77
2021/12/03 04:21:29;;;;;;;;;10.25;8.25;;;;;;;;4979000;28;45327;-79
2021/12/03 04:23:55;;;;;;;;;8.25;8.25;;;;;;;;4978488;28;46118;-77
2021/12/03 04:26:20;;;;;;;;;9.25;9.00;;;;;;;;4978553;28;45495;-77
2021/12/03 04:28:45;;;;;;;;;7.75;7.75;;;;;;;;4977971;28;45498;-75
2021/12/03 04:31:11;;;;;;;;;9.75;9.75;;;;;;;;4977500;28;45672;-77
2021/12/03 04:33:36;;;;;;;;;7.25;7.25;;;;;;;;4978337;28;45378;-74
2021/12/03 04:36:01;;;;;;;;;5.00;3.00;;;;;;;;4978443;28;45453;-74
2021/12/03 04:38:26;;;;;;;;;8.25;8.00;;;;;;;;4978503;28;45375;-75
2021/12/03 04:40:52;;;;;;;;;9.25;7.25;;;;;;;;4978638;28;45345;-75
2021/12/03 04:43:17;;;;;;;;;6.00;6.00;;;;;;;;4978578;28;46488;-76
2021/12/03 04:45:43;;;;;;;;;7.25;6.00;;;;;;;;4978566;28;45459;-77
2021/12/03 04:48:08;;;;;;;;;11.25;9.50;;;;;;;;4978913;28;45296;-76
2021/12/03 04:50:37;;;;;;;;;5.25;2.00;;;;;;;;4978629;28;45306;-77
2021/12/03 04:53:03;;;;;;;;;8.25;6.50;;;;;;;;4960648;28;48499;-77
2021/12/03 04:55:29;;;;;;;;;10.00;10.00;;;;;;;;4978243;28;45463;-78
2021/12/03 04:57:54;;;;;;;;;10.00;7.00;;;;;;;;4978343;28;45387;-78
2021/12/03 05:00:22;;;;;;;;;8.25;6.75;;;;;;;;4978633;28;45422;-76
2021/12/03 05:02:49;;;;;;;;;9.00;9.00;;;;;;;;4977501;28;47446;-76
2021/12/03 05:05:15;;;;;;;;;7.50;7.50;;;;;;;;4977777;28;45306;-79
2021/12/03 05:10:06;;;;;;;;;9.50;8.75;;;;;;;;4977996;28;45320;-77
2021/12/03 05:12:32;;;;;;;;;7.50;7.50;;;;;;;;4977482;28;46983;-76
2021/12/03 05:14:58;;;;;;;;;10.00;7.00;;;;;;;;4977805;28;45360;-77
2021/12/03 05:17:23;;;;;;;;;7.50;7.50;;;;;;;;4977306;28;45685;-77
2021/12/03 05:19:49;;;;;;;;;6.00;6.00;;;;;;;;4978067;28;45546;-77
2021/12/03 05:22:14;;;;;;;;;8.75;7.00;;;;;;;;4977648;28;46372;-76
2021/12/03 05:24:42;;;;;;;;;5.75;5.75;;;;;;;;4977658;28;45324;-77
2021/12/03 05:27:07;;;;;;;;;6.75;6.75;;;;;;;;4977772;28;45522;-76
2021/12/03 05:29:33;;;;;;;;;9.25;7.00;;;;;;;;4977525;28;45513;-79
2021/12/03 05:31:58;;;;;;;;;9.25;9.25;;;;;;;;4977214;28;45414;-81
2021/12/03 05:34:24;;;;;;;;;6.25;6.25;;;;;;;;4977380;28;45343;-79
2021/12/03 05:36:50;;;;;;;;;9.00;7.00;;;;;;;;4977512;28;45229;-79
2021/12/03 05:39:15;;;;;;;;;7.75;7.75;;;;;;;;4977374;28;45294;-77
2021/12/03 05:41:41;;;;;;;;;5.75;5.25;;;;;;;;4959427;28;46929;-77
2021/12/03 05:44:06;;;;;;;;;4.00;4.00;;;;;;;;4977191;28;45373;-79
2021/12/03 05:46:31;;;;;;;;;5.75;5.75;;;;;;;;4977096;28;45364;-78
2021/12/03 05:48:57;;;;;;;;;10.75;6.75;;;;;;;;4977125;28;45238;-79
2021/12/03 05:51:25;;;;;;;;;6.00;6.00;;;;;;;;4958627;28;47268;-78
2021/12/03 05:53:50;;;;;;;;;4.00;4.00;;;;;;;;4976837;28;45428;-78
2021/12/03 05:56:15;;;;;;;;;5.50;5.50;;;;;;;;4976582;28;45312;-77
2021/12/03 05:58:41;;;;;;;;;7.00;6.00;;;;;;;;4957829;28;45519;-79
2021/12/03 06:01:06;;;;;;;;;10.75;9.25;;;;;;;;4976360;28;46565;-79
2021/12/03 06:03:31;;;;;;;;;6.25;4.75;;;;;;;;4976271;28;45302;-80
2021/12/03 06:05:56;;;;;;;;;7.00;5.75;;;;;;;;4959315;28;45324;-80
2021/12/03 06:08:22;;;;;;;;;10.50;10.25;;;;;;;;4993371;23;45498;-76
2021/12/03 06:10:47;;;;;;;;;12.00;7.75;;;;;;;;4995139;28;47262;-80
2021/12/03 06:13:12;;;;;;;;;11.75;10.50;;;;;;;;4978355;28;45406;-76
2021/12/03 06:15:38;;;;;;;;;8.25;8.25;;;;;;;;4978667;28;45402;-82
2021/12/03 06:18:03;;;;;;;;;6.50;5.00;;;;;;;;4979114;28;45574;-81
2021/12/03 06:20:29;;;;;;;;;7.00;7.00;;;;;;;;4995959;28;46533;-80
2021/12/03 06:22:54;;;;;;;;;15.50;15.50;;;;;;;;4996432;28;45356;-80
2021/12/03 06:25:20;;;;;;;;;6.25;6.00;;;;;;;;4978340;28;45281;-79
2021/12/03 06:27:45;;;;;;;;;7.00;7.00;;;;;;;;4978477;28;45409;-81
2021/12/03 06:30:12;;;;;;;;;6.00;6.00;;;;;;;;4980178;28;46061;-86
2021/12/03 06:32:38;;;;;;;;;4.00;4.00;;;;;;;;4981598;28;45257;-80
2021/12/03 06:35:04;;;;;;;;;9.50;5.50;;;;;;;;4981552;28;45412;-78
2021/12/03 06:37:29;;;;;;;;;10.50;6.25;;;;;;;;4999777;28;45365;-78
2021/12/03 06:39:55;;;;;;;;;3.50;3.50;;;;;;;;4981911;28;45474;-79
2021/12/03 06:42:20;;;;;;;;;8.50;7.00;;;;;;;;4991715;28;45529;-78
2021/12/03 06:44:46;;;;;;;;;3.00;3.00;;;;;;;;4980909;28;45465;-79
2021/12/03 06:47:11;;;;;;;;;10.00;8.75;;;;;;;;4962260;28;45618;-79
2021/12/03 06:49:36;;;;;;;;;5.75;5.75;;;;;;;;4979050;28;45964;-78
2021/12/03 06:52:05;;;;;;;;;6.00;6.00;;;;;;;;4979633;28;45383;-78
2021/12/03 06:54:33;;;;;;;;;3.00;3.00;;;;;;;;4979887;28;45207;-80
2021/12/03 06:56:58;;;;;;;;;10.50;8.00;;;;;;;;4979256;28;45329;-81
2021/12/03 06:59:25;;;;;;;;;5.00;5.00;;;;;;;;4979718;28;46384;-81
2021/12/03 07:01:51;;;;;;;;;6.50;6.00;;;;;;;;4980023;28;45868;-83
2021/12/03 07:04:17;;;;;;;;;5.00;5.00;;;;;;;;4979518;28;45372;-78
2021/12/03 07:06:43;;;;;;;;;5.75;3.00;;;;;;;;4961639;28;45407;-78
2021/12/03 07:09:08;;;;;;;;;5.00;2.00;;;;;;;;4978716;28;45499;-77
2021/12/03 07:11:34;;;;;;;;;7.75;5.00;;;;;;;;4979181;28;45482;-80
2021/12/03 07:13:59;;;;;;;;;8.00;8.00;;;;;;;;4962508;28;45400;-76
2021/12/03 07:16:25;;;;;;;;;9.00;6.75;;;;;;;;4979438;28;45412;-82
2021/12/03 07:18:50;;;;;;;;;6.25;6.25;;;;;;;;4979219;28;46336;-78
2021/12/03 07:21:16;;;;;;;;;5.00;5.00;;;;;;;;4981843;28;45251;-89
2021/12/03 07:23:41;;;;;;;;;8.00;6.00;;;;;;;;4967177;28;45414;-85
2021/12/03 07:26:06;;;;;;;;;9.75;6.00;;;;;;;;4987036;28;45319;-91
2021/12/03 07:28:32;;;;;;;;;5.00;5.00;;;;;;;;4966695;28;47010;-86
2021/12/03 07:30:58;;;;;;;;;5.75;5.00;;;;;;;;4988724;28;45142;-87
2021/12/03 07:33:32;;;;;;;;;6.00;6.00;;;;;;;;4992366;28;45230;-94
2021/12/03 07:35:58;;;;;;;;;5.00;5.00;;;;;;;;4988938;28;45194;-90
2021/12/03 07:38:23;;;;;;;;;2.00;1.50;;;;;;;;4982270;28;45574;-86
2021/12/03 07:40:49;;;;;;;;;2.50;2.50;;;;;;;;4992641;28;45129;-89
2021/12/03 07:43:17;;;;;;;;;7.00;7.00;;;;;;;;4988827;28;45288;-89
2021/12/03 07:45:42;;;;;;;;;8.25;7.00;;;;;;;;4983591;28;45450;-87
2021/12/03 07:48:08;;;;;;;;;5.00;4.00;;;;;;;;4985397;28;45307;-78
2021/12/03 07:50:35;;;;;;;;;5.75;5.50;;;;;;;;4985265;28;45466;-89
2021/12/03 07:53:01;;;;;;;;;3.00;3.00;;;;;;;;4974344;28;45382;-85
2021/12/03 07:55:27;;;;;;;;;5.25;5.25;;;;;;;;4988441;28;45204;-81
2021/12/03 07:57:52;;;;;;;;;7.25;6.00;;;;;;;;4982213;28;46213;-80
2021/12/03 08:00:18;;;;;;;;;7.50;5.50;;;;;;;;4967342;28;45856;-81
2021/12/03 08:02:43;;;;;;;;;2.00;2.00;;;;;;;;4986538;28;45639;-84
2021/12/03 08:05:08;;;;;;;;;6.75;5.00;;;;;;;;4986262;28;45304;-82
2021/12/03 08:07:34;;;;;;;;;2.00;0.75;;;;;;;;4984256;28;45385;-82
2021/12/03 08:09:59;;;;;;;;;1.75;1.75;;;;;;;;4991900;28;45240;-85
2021/12/03 08:12:25;;;;;;;;;3.50;3.50;;;;;;;;4985960;28;45312;-81
2021/12/03 08:14:50;;;;;;;;;6.75;6.75;;;;;;;;4967415;28;45663;-83
2021/12/03 08:17:15;;;;;;;;;3.00;3.00;;;;;;;;4976292;28;47411;-82
2021/12/03 08:19:40;;;;;;;;;3.50;2.50;;;;;;;;4987809;28;45502;-82
2021/12/03 08:22:06;;;;;;;;;3.00;3.00;;;;;;;;4985650;28;45389;-81
2021/12/03 08:24:31;;;;;;;;;2.25;2.00;;;;;;;;4987693;28;45452;-84
2021/12/03 08:26:56;;;;;;;;;3.50;3.50;;;;;;;;4988904;28;46070;-88
2021/12/03 08:29:22;;;;;;;;;4.75;3.00;;;;;;;;5000739;28;45362;-88
2021/12/03 08:31:47;;;;;;;;;5.75;5.00;;;;;;;;4998913;28;45659;-85
2021/12/03 08:34:12;;;;;;;;;3.00;3.00;;;;;;;;4998186;28;45358;-82
2021/12/03 08:36:38;;;;;;;;;4.50;4.50;;;;;;;;4998024;28;46672;-88
2021/12/03 08:39:04;;;;;;;;;3.00;3.00;;;;;;;;4997363;28;45666;-86
2021/12/03 08:41:30;;;;;;;;;2.75;2.00;;;;;;;;4998077;28;45495;-84
2021/12/03 08:43:55;;;;;;;;;2.00;0.75;;;;;;;;4998032;28;45372;-82
2021/12/03 08:46:30;;;;;;;;;2.00;2.00;;;;;;;;4998096;28;46140;-85
2021/12/03 08:49:05;;;;;;;;;4.00;4.00;;;;;;;;4998114;28;45383;-85
2021/12/03 08:56:46;;;;;;;;;5.75;5.00;;;;;;;;4997604;28;45706;-84
2021/12/03 08:59:15;;;;;;;;;6.25;5.00;;;;;;;;4998002;28;45393;-82
2021/12/03 09:01:40;;;;;;;;;7.00;7.00;;;;;;;;4997383;28;45476;-84
2021/12/03 09:04:06;;;;;;;;;5.00;5.00;;;;;;;;4997373;28;45372;-83
2021/12/03 09:06:32;;;;;;;;;8.00;6.75;;;;;;;;4996869;28;45663;-83
2021/12/03 09:08:57;;;;;;;;;5.25;5.25;;;;;;;;4997096;28;45625;-82
2021/12/03 09:11:24;;;;;;;;;4.50;4.50;;;;;;;;4999192;28;45247;-89
2021/12/03 09:13:51;;;;;;;;;6.00;6.00;;;;;;;;4980140;28;45285;-84
2021/12/03 09:16:19;;;;;;;;;6.00;6.00;;;;;;;;4997244;28;45588;-83
2021/12/03 09:18:45;;;;;;;;;3.00;3.00;;;;;;;;4980787;28;45338;-80
2021/12/03 09:21:19;;;;;;;;;7.00;6.00;;;;;;;;4979920;28;45402;-83
2021/12/03 09:26:14;;;;;;;;;5.00;5.00;;;;;;;;4997229;28;45357;-84
2021/12/03 09:28:42;;;;;;;;;7.75;6.00;;;;;;;;4980677;28;45820;-84
2021/12/03 09:31:10;;;;;;;;;7.50;6.25;;;;;;;;4998759;28;45396;-85
2021/12/03 09:33:37;;;;;;;;;6.75;5.00;;;;;;;;4998161;28;45414;-86
2021/12/03 09:36:03;;;;;;;;;6.00;5.75;;;;;;;;4997719;28;45466;-84
2021/12/03 09:38:32;;;;;;;;;5.75;5.25;;;;;;;;4979357;28;45439;-86
2021/12/03 09:41:07;;;;;;;;;7.00;5.00;;;;;;;;4997657;28;45466;-83
2021/12/03 09:43:34;;;;;;;;;8.50;7.50;;;;;;;;4996015;28;45620;-86
2021/12/03 09:46:20;;;;;;;;;6.00;5.00;;;;;;;;4979028;28;47150;-86
2021/12/03 09:51:44;;;;;;;;;10.00;7.00;;;;;;;;4998391;28;45422;-83
2021/12/03 09:56:35;;;;;;;;;7.00;5.75;;;;;;;;4995821;28;45320;-88
2021/12/03 10:04:43;;;;;;;;;6.75;6.75;;;;;;;;4995936;28;45646;-83
2021/12/03 10:15:06;;;;;;;;;13.00;10.50;;;;;;;;4995830;28;45493;-78
2021/12/03 10:17:45;;;;;;;;;15.25;13.25;;;;;;;;4994991;28;47276;-75
2021/12/03 10:26:09;;;;;;;;;15.00;14.00;;;;;;;;4915252;28;45869;-83
2021/12/03 10:39:12;;;;;;;;;12.50;12.50;;;;;;;;4916498;28;45440;-87
2021/12/03 10:50:13;;;;;;;;;12.00;12.00;;;;;;;;4914610;28;45983;-84
2021/12/03 10:55:44;;;;;;;;;11.00;9.50;;;;;;;;4915799;28;45346;-86
2021/12/03 12:01:18;;;;;;;;;15.50;13.50;;;;;;;;4913637;28;45399;-81
2021/12/03 13:14:55;;;;;;;;;6.50;6.00;;;;;;;;4916816;28;45299;-72
2021/12/03 13:20:53;;;;;;;;;17.75;16.00;;;;;;;;4904725;28;45807;-73
2021/12/03 13:56:06;;;;;;;;;9.00;9.00;;;;;;;;4822590;29;45434;-73
2021/12/03 14:00:06;;;;;;;;;17.75;15.75;;;;;;;;4803072;29;45450;-73
2021/12/03 14:27:11;;;;;;;;;14.25;14.25;;;;;;;;4915444;28;45308;-77
2021/12/03 14:41:20;;;;;;;;;9.50;9.50;;;;;;;;4877015;28;45912;-74
2021/12/03 14:44:05;;;;;;;;;12.50;10.75;;;;;;;;4914627;28;45502;-72
2021/12/03 14:46:45;;;;;;;;;15.50;11.75;;;;;;;;4915574;28;45364;-72
2021/12/03 14:52:05;;;;;;;;;9.75;9.75;;;;;;;;4916987;28;45359;-72
2021/12/03 14:57:11;;;;;;;;;6.00;5.00;;;;;;;;4918492;28;45316;-80
2021/12/03 14:59:42;;;;;;;;;10.75;9.50;;;;;;;;4919121;28;45404;-76
2021/12/03 15:05:44;;;;;;;;;6.75;5.75;;;;;;;;4916913;28;45505;-81
2021/12/03 15:07:48;;;;;;;;;10.00;8.25;;;;;;;;4943393;28;45425;-76
2021/12/03 15:10:22;;;;;;;;;8.00;6.00;;;;;;;;4978877;28;45430;-78
2021/12/03 15:21:07;;;;;;;;;5.00;5.00;;;;;;;;4977578;28;45402;-78
2021/12/03 15:23:36;;;;;;;;;6.25;6.25;;;;;;;;4978146;28;45516;-76
2021/12/03 15:26:15;;;;;;;;;5.50;5.50;;;;;;;;4984289;28;45487;-80
2021/12/03 15:36:26;;;;;;;;;5.50;5.50;;;;;;;;4977774;28;45619;-78
2021/12/03 15:53:02;;;;;;;;;7.25;6.50;;;;;;;;4977586;28;45281;-79
2021/12/03 15:58:01;;;;;;;;;11.25;11.25;;;;;;;;4976586;28;45599;-76
2021/12/03 16:03:34;;;;;;;;;10.25;7.00;;;;;;;;4976862;28;45367;-75
2021/12/03 16:08:45;;;;;;;;;6.50;6.00;;;;;;;;4976967;28;45325;-76
2021/12/03 16:11:29;;;;;;;;;5.00;5.00;;;;;;;;4977205;28;45422;-74
2021/12/03 16:19:29;;;;;;;;;12.50;12.25;;;;;;;;4977071;28;45280;-80
2021/12/03 16:53:49;;;;;;;;;22.25;21.25;;;;;;;;4914407;28;45728;-78
2021/12/03 16:56:18;;;;;;;;;13.00;13.00;;;;;;;;4898496;28;45465;-77
2021/12/03 16:58:44;;;;;;;;;49.00;40.25;;;;;;;;4899652;28;48347;-80
2021/12/03 17:09:13;;;;;;;;;16.00;13.00;;;;;;;;4953024;28;45653;-76
2021/12/03 17:48:57;;;;;;;;;20.25;18.50;;;;;;;;4879253;29;45438;-75
2021/12/03 17:55:15;;;;;;;;;21.75;19.50;;;;;;;;4840291;29;45382;-76
2021/12/03 17:57:38;;;;;;;;;17.25;12.25;;;;;;;;4804460;29;45746;-78
2021/12/03 18:00:35;;;;;;;;;18.75;16.75;;;;;;;;4804347;29;45665;-77
2021/12/03 18:03:19;;;;;;;;;16.75;14.50;;;;;;;;4804245;29;46156;-77
2021/12/03 18:14:21;;;;;;;;;11.75;11.75;;;;;;;;4804557;29;45685;-77
2021/12/03 18:49:15;;;;;;;;;22.75;22.25;;;;;;;;4902363;29;45466;-80
2021/12/03 18:54:45;;;;;;;;;21.25;19.25;;;;;;;;4905562;29;45562;-76
2021/12/03 18:57:13;;;;;;;;;29.00;27.00;;;;;;;;4908736;29;45337;-76
2021/12/03 19:00:12;;;;;;;;;22.25;20.50;;;;;;;;4911172;29;45500;-77
2021/12/03 19:02:31;;;;;;;;;14.00;14.00;;;;;;;;4902536;29;45564;-78
2021/12/03 19:05:06;;;;;;;;;16.25;16.25;;;;;;;;4901455;29;45501;-71
2021/12/03 19:08:30;;;;;;;;;23.00;23.00;;;;;;;;4969518;28;47640;-71
2021/12/03 19:10:22;;;;;;;;;42.50;35.75;;;;;;;;4964678;28;45348;-72
2021/12/03 19:12:56;;;;;;;;;30.50;27.50;;;;;;;;4977361;28;45544;-72
2021/12/03 19:15:21;;;;;;;;;40.50;37.75;;;;;;;;4969748;28;45553;-71
2021/12/03 19:17:48;;;;;;;;;34.50;31.75;;;;;;;;4965417;28;45459;-70
2021/12/03 19:20:16;;;;;;;;;91.67;78.33;;;;;;;;4972192;28;45411;-69
2021/12/03 19:22:43;;;;;;;;;27.00;26.75;;;;;;;;4950216;28;45440;-70
2021/12/03 19:25:08;;;;;;;;;29.75;29.75;;;;;;;;4969673;28;45365;-70
2021/12/03 19:27:34;;;;;;;;;33.00;32.25;;;;;;;;4975526;28;45825;-71
2021/12/03 19:30:00;;;;;;;;;30.00;27.50;;;;;;;;4977693;28;45370;-73
2021/12/03 19:32:28;;;;;;;;;42.00;35.75;;;;;;;;4978446;28;45267;-73
2021/12/03 19:34:53;;;;;;;;;27.50;27.00;;;;;;;;4960941;28;45460;-69
2021/12/03 19:37:19;;;;;;;;;30.25;29.00;;;;;;;;4977546;28;46949;-70
2021/12/03 19:39:44;;;;;;;;;35.00;31.75;;;;;;;;4978430;28;45317;-70
2021/12/03 19:42:19;;;;;;;;;63.25;50.50;;;;;;;;4978220;28;45387;-70
2021/12/03 19:47:13;;;;;;;;;36.25;35.50;;;;;;;;4978754;28;45424;-70
2021/12/03 19:54:49;;;;;;;;;36.00;33.75;;;;;;;;4977959;28;45346;-74
2021/12/03 19:57:14;;;;;;;;;31.75;30.25;;;;;;;;4977726;28;46470;-73
2021/12/03 19:59:39;;;;;;;;;32.25;31.75;;;;;;;;4977167;28;45340;-71
2021/12/03 20:02:05;;;;;;;;;32.75;31.75;;;;;;;;4978145;28;45287;-70
2021/12/03 20:04:30;;;;;;;;;40.75;37.00;;;;;;;;4978138;28;45495;-73
2021/12/03 20:06:55;;;;;;;;;37.50;32.25;;;;;;;;4956674;28;48218;-71
2021/12/03 20:09:24;;;;;;;;;28.25;27.50;;;;;;;;4977771;28;45339;-71
2021/12/03 20:11:53;;;;;;;;;39.75;35.75;;;;;;;;4977828;28;45754;-75
2021/12/03 20:14:20;;;;;;;;;75.50;57.75;;;;;;;;4977824;28;45276;-73
2021/12/03 20:17:04;;;;;;;;;46.00;40.00;;;;;;;;4978065;28;45372;-73
2021/12/03 20:19:34;;;;;;;;;43.25;38.00;;;;;;;;4959862;28;45492;-74
2021/12/03 20:22:14;;;;;;;;;29.25;26.00;;;;;;;;4976805;28;45471;-73
2021/12/03 20:27:46;;;;;;;;;31.25;29.50;;;;;;;;4916285;28;46502;-76
2021/12/03 20:30:36;;;;;;;;;35.75;32.50;;;;;;;;4901143;28;45419;-70
2021/12/03 20:33:54;;;;;;;;;44.75;41.25;;;;;;;;4917032;28;45737;-71
2021/12/03 20:38:40;;;;;;;;;37.50;35.75;;;;;;;;4916146;28;45733;-69
2021/12/03 20:41:10;;;;;;;;;24.25;23.00;;;;;;;;4915782;28;45463;-70
2021/12/03 20:49:06;;;;;;;;;26.75;25.00;;;;;;;;4915590;28;46008;-71
2021/12/03 21:13:24;;;;;;;;;23.25;22.00;;;;;;;;4897167;29;45454;-74
2021/12/03 21:16:09;;;;;;;;;40.00;37.50;;;;;;;;4897273;29;45508;-73
2021/12/03 21:18:45;;;;;;;;;26.50;26.25;;;;;;;;4881474;29;45564;-72
2021/12/03 21:21:19;;;;;;;;;14.75;14.00;;;;;;;;4897059;29;46343;-72
2021/12/03 21:23:46;;;;;;;;;11.25;11.25;;;;;;;;4896663;29;45341;-73
2021/12/03 21:26:17;;;;;;;;;30.50;26.25;;;;;;;;4896817;29;45577;-72
2021/12/03 21:42:10;;;;;;;;;21.50;19.50;;;;;;;;4968401;28;45962;-72
2021/12/03 21:44:35;;;;;;;;;36.75;36.00;;;;;;;;4981891;28;45440;-72
2021/12/03 21:47:04;;;;;;;;;35.50;35.25;;;;;;;;4985015;28;45418;-75
2021/12/03 21:49:29;;;;;;;;;21.50;21.00;;;;;;;;4996308;28;45553;-73
2021/12/03 21:51:54;;;;;;;;;17.00;17.00;;;;;;;;4994841;28;46337;-75
2021/12/03 21:54:20;;;;;;;;;12.00;12.00;;;;;;;;4994704;28;45394;-72
2021/12/03 21:56:47;;;;;;;;;14.75;14.75;;;;;;;;4995456;28;45375;-75
2021/12/03 21:59:14;;;;;;;;;19.75;19.75;;;;;;;;4995490;28;45675;-74
2021/12/03 22:01:40;;;;;;;;;20.50;16.75;;;;;;;;4995395;28;47078;-75
2021/12/03 22:04:05;;;;;;;;;271.33;243.67;;;;;;;;4995412;28;45446;-72
2021/12/03 22:06:31;;;;;;;;;280.33;261.00;;;;;;;;4987726;28;45339;-74
2021/12/03 22:08:56;;;;;;;;;47.00;35.00;;;;;;;;4975940;28;45415;-73
2021/12/03 22:11:26;;;;;;;;;24.50;22.25;;;;;;;;4958181;28;47400;-73
2021/12/03 22:13:52;;;;;;;;;39.75;33.75;;;;;;;;4976439;28;45453;-74
2021/12/03 22:16:17;;;;;;;;;21.00;21.00;;;;;;;;4975874;28;45448;-71
2021/12/03 22:18:43;;;;;;;;;27.25;25.00;;;;;;;;4975984;28;45323;-72
2021/12/03 22:21:09;;;;;;;;;36.00;33.25;;;;;;;;4975041;28;46514;-75
2021/12/03 22:23:36;;;;;;;;;31.50;31.25;;;;;;;;4974806;28;45409;-75
2021/12/03 22:26:02;;;;;;;;;12.50;10.25;;;;;;;;4975980;28;45398;-74
2021/12/03 22:28:27;;;;;;;;;15.50;15.50;;;;;;;;4974736;28;45431;-73
2021/12/03 22:30:53;;;;;;;;;15.25;15.25;;;;;;;;4975946;28;45511;-74
2021/12/03 22:33:20;;;;;;;;;32.50;32.50;;;;;;;;4975702;28;45430;-75
2021/12/03 22:35:46;;;;;;;;;37.50;34.25;;;;;;;;4974962;28;45445;-77
2021/12/03 22:38:11;;;;;;;;;19.00;18.25;;;;;;;;4975813;28;45359;-78
2021/12/03 22:40:37;;;;;;;;;22.75;20.00;;;;;;;;4975606;28;46358;-74
2021/12/03 22:43:04;;;;;;;;;23.75;22.50;;;;;;;;4975698;28;45458;-75
2021/12/03 22:45:37;;;;;;;;;28.25;28.00;;;;;;;;4975324;28;45718;-74